Enter the Airport ICAO Code

Search by Airport or City

Current Weather

SKBO | El Dorado International Airport

Bogotá, Colombia

Last Update 46 Minutes Ago

Rain Shower

Temperature of 16 ºC

Light to Moderate Winds from West

Temperature

16 ºC

Dew Point Temperature

12 ºC

Relative Humidity

77.25 %

Wind Direction

West (290º, Without Significant Variations)

Wind Velocity

9 km/h (05 kt)

Gusts

None

Visibility

Greater than 10 Kilometers

Sea Level Pressure

30.22 inHg (Inches of Mercury)

Layers of Clouds

60% to 90% of Sky Covered from 823 mts (2700 ft) Above Ground Level.

METAR SKBO 022200Z 29005KT 9999 VCSH BKN027 16/12 A3022 REDZ NOSIGRMK VCSH/W

Weather Forecast

SKBO | El Dorado International Airport

Bogotá, Colombia

Forecast valid for the next 25 Hours

In 1 hour it is expected the begining of:

Mostly Cloudy Sky

Light Winds from Variable Directions

In 3 hours it is expected the begining of 3 hours with intermittent periods of:

Rain

In 16 to 18 hours it is expected the begining of:

Moderate Winds from East

In 21 hours it is expected the begining of 4 hours with intermittent periods of:

Thunderstorm with Rain

Moderate Winds from West

Maximum Temperature

No Data

Minimum Temperature

No Data

TAF SKBO 022230Z 0300/0324 VRB02KT 9999 BKN015 TEMPO 0302/0305 DZRA BKN015TCU BECMG 0315/0317 11010KT TEMPO 0320/0324 27010KT 5000 TSRA SCT15CB TX20/0318Z TN11/0310Z